createdAt,value
2022-12-11T00:02:05.887Z,99578.22
2022-12-11T00:04:32.492Z,99566.28
2022-12-11T00:06:59.119Z,99567.94
2022-12-11T00:09:25.800Z,99574.81
2022-12-11T00:11:52.372Z,99574.97
2022-12-11T00:14:18.954Z,99575.53
2022-12-11T00:16:48.455Z,99576.66
2022-12-11T00:19:15.733Z,99577.78
2022-12-11T00:21:42.471Z,99577.75
2022-12-11T00:24:09.060Z,99586.56
2022-12-11T00:26:35.606Z,99576.97
2022-12-11T00:29:02.109Z,99579.56
2022-12-11T00:31:28.666Z,99586.66
2022-12-11T00:33:55.210Z,99588.66
2022-12-11T00:36:24.368Z,99578.88
2022-12-11T00:38:51.908Z,99579.81
2022-12-11T00:41:18.907Z,99580.66
2022-12-11T00:43:45.847Z,99582.69
2022-12-11T00:46:12.779Z,99579.97
2022-12-11T00:48:40.030Z,99582.78
2022-12-11T00:51:07.284Z,99580.19
2022-12-11T00:53:33.852Z,99581.09
2022-12-11T00:56:00.392Z,99581.22
2022-12-11T00:58:27.101Z,99587.16
2022-12-11T01:00:53.805Z,99579.16
2022-12-11T01:03:20.415Z,99575.69
2022-12-11T01:05:55.807Z,99577.41
2022-12-11T01:08:22.481Z,99586.91
2022-12-11T01:10:49.159Z,99579.53
2022-12-11T01:13:16.045Z,99577.41
2022-12-11T01:15:45.247Z,99589.66
2022-12-11T01:18:13.961Z,99590.72
2022-12-11T01:20:42.663Z,99582.97
2022-12-11T01:23:13.166Z,99592.94
2022-12-11T01:25:40.277Z,99596.06
2022-12-11T01:28:07.433Z,99588.00
2022-12-11T01:30:34.608Z,99593.44
2022-12-11T01:33:01.313Z,99586.41
2022-12-11T01:35:28.228Z,99599.09
2022-12-11T01:37:54.930Z,99592.22
2022-12-11T01:40:22.142Z,99596.59
2022-12-11T01:42:48.726Z,99596.09
2022-12-11T01:45:21.393Z,99601.03
2022-12-11T01:48:00.415Z,99596.94
2022-12-11T01:50:28.823Z,99600.22
2022-12-11T01:52:55.428Z,99596.94
2022-12-11T01:55:22.125Z,99599.63
2022-12-11T01:57:50.657Z,99597.97
2022-12-11T02:00:18.123Z,99595.19
2022-12-11T02:02:45.378Z,99604.59
2022-12-11T02:05:12.965Z,99584.91
2022-12-11T02:07:48.424Z,99596.63
2022-12-11T02:10:15.359Z,99596.22
2022-12-11T02:12:59.414Z,99596.38
2022-12-11T02:15:32.521Z,99591.75
2022-12-11T02:18:02.132Z,99592.16
2022-12-11T02:20:37.279Z,99586.38
2022-12-11T02:23:21.413Z,99590.25
2022-12-11T02:26:09.517Z,99586.88
2022-12-11T02:28:57.445Z,99587.66
2022-12-11T02:31:27.553Z,99575.34
2022-12-11T02:34:08.596Z,99580.66
2022-12-11T02:36:41.827Z,99576.38
2022-12-11T02:39:13.039Z,99577.97
2022-12-11T02:41:45.021Z,99578.97
2022-12-11T02:44:15.731Z,99577.53
2022-12-11T02:46:44.378Z,99577.53
2022-12-11T02:49:13.446Z,99584.47
2022-12-11T02:51:42.111Z,99576.66
2022-12-11T02:54:14.049Z,99583.69
2022-12-11T02:56:47.981Z,99575.75
2022-12-11T02:59:23.825Z,99579.16
2022-12-11T03:01:50.653Z,99570.78
2022-12-11T03:04:17.551Z,99579.41
2022-12-11T03:06:50.214Z,99586.50
2022-12-11T03:09:17.631Z,99583.78
2022-12-11T03:11:44.129Z,99578.22
2022-12-11T03:14:11.447Z,99581.63
2022-12-11T03:17:14.975Z,99581.69
2022-12-11T03:20:04.798Z,99582.59
2022-12-11T03:22:44.091Z,99585.19
2022-12-11T03:25:17.182Z,99588.75
2022-12-11T03:28:01.580Z,99588.72
2022-12-11T03:30:29.213Z,99592.44
2022-12-11T03:33:01.147Z,99587.22
2022-12-11T03:35:39.033Z,99588.03
2022-12-11T03:38:10.920Z,99584.78
2022-12-11T03:40:42.411Z,99594.19
2022-12-11T03:43:11.224Z,99588.53
2022-12-11T03:45:39.690Z,99593.63
2022-12-11T03:48:09.471Z,99592.88
2022-12-11T03:50:36.676Z,99591.88
2022-12-11T03:53:04.816Z,99599.63
2022-12-11T03:55:33.709Z,99602.44
2022-12-11T03:58:00.266Z,99594.84
2022-12-11T04:00:27.033Z,99590.44
2022-12-11T04:03:13.925Z,99590.69
2022-12-11T04:05:46.281Z,99592.06
2022-12-11T04:08:13.657Z,99593.72
2022-12-11T04:10:41.219Z,99595.63
2022-12-11T04:13:08.539Z,99590.34
2022-12-11T04:15:35.523Z,99587.97
2022-12-11T04:18:28.578Z,99593.72
2022-12-11T04:21:14.973Z,99596.19
2022-12-11T04:24:00.130Z,99600.50
2022-12-11T04:26:26.977Z,99597.97
2022-12-11T04:28:53.521Z,99591.94
2022-12-11T04:31:22.205Z,99602.47
2022-12-11T04:33:49.033Z,99594.53
2022-12-11T04:36:16.249Z,99599.50
2022-12-11T04:38:42.782Z,99590.03
2022-12-11T04:41:11.978Z,99584.28
2022-12-11T04:43:39.216Z,99580.69
2022-12-11T04:46:08.852Z,99581.56
2022-12-11T04:48:37.171Z,99576.75
2022-12-11T04:51:04.041Z,99578.19
2022-12-11T04:53:31.076Z,99579.81
2022-12-11T04:55:57.986Z,99583.16
2022-12-11T04:58:26.256Z,99591.94
2022-12-11T05:00:53.431Z,99586.25
2022-12-11T05:03:20.616Z,99582.50
2022-12-11T05:05:51.684Z,99573.78
2022-12-11T05:08:19.895Z,99572.19
2022-12-11T05:10:59.156Z,99575.50
2022-12-11T05:13:27.632Z,99576.56
2022-12-11T05:15:54.552Z,99567.81
2022-12-11T05:18:21.341Z,99562.63
2022-12-11T05:20:58.793Z,99560.00
2022-12-11T05:23:26.142Z,99560.03
2022-12-11T05:25:57.936Z,99566.25
2022-12-11T05:28:27.585Z,99567.47
2022-12-11T05:31:05.872Z,99570.22
2022-12-11T05:33:32.891Z,99563.34
2022-12-11T05:35:59.481Z,99556.69
2022-12-11T05:38:26.371Z,99570.22
2022-12-11T05:41:04.940Z,99555.69
2022-12-11T05:43:34.574Z,99554.00
2022-12-11T05:46:12.117Z,99559.50
2022-12-11T05:48:39.088Z,99557.75
2022-12-11T05:51:06.977Z,99552.69
2022-12-11T05:53:33.493Z,99552.69
2022-12-11T05:56:13.978Z,99554.47
2022-12-11T05:58:41.882Z,99559.50
2022-12-11T06:01:14.526Z,99560.50
2022-12-11T06:03:41.065Z,99561.50
2022-12-11T06:06:08.451Z,99562.13
2022-12-11T06:08:35.362Z,99553.00
2022-12-11T06:11:02.583Z,99557.50
2022-12-11T06:13:29.160Z,99551.38
2022-12-11T06:15:59.517Z,99562.63
2022-12-11T06:18:26.287Z,99563.41
2022-12-11T06:20:52.822Z,99564.31
2022-12-11T06:23:19.353Z,99556.53
2022-12-11T06:25:45.873Z,99563.44
2022-12-11T06:28:12.454Z,99566.94
2022-12-11T06:30:39.662Z,99566.31
2022-12-11T06:33:06.750Z,99561.06
2022-12-11T06:35:40.105Z,99568.06
2022-12-11T06:38:08.822Z,99572.34
2022-12-11T06:40:35.452Z,99561.34
2022-12-11T06:43:01.985Z,99574.22
2022-12-11T06:45:28.592Z,99572.47
2022-12-11T06:47:55.716Z,99575.25
2022-12-11T06:50:22.309Z,99570.72
2022-12-11T06:52:48.836Z,99566.34
2022-12-11T06:55:15.476Z,99581.13
2022-12-11T06:57:42.016Z,99582.84
2022-12-11T07:00:09.381Z,99586.44
2022-12-11T07:02:35.937Z,99578.91
2022-12-11T07:05:02.648Z,99583.97
2022-12-11T07:07:29.178Z,99580.19
2022-12-11T07:09:55.658Z,99587.34
2022-12-11T07:12:22.216Z,99594.72
2022-12-11T07:14:48.715Z,99593.88
2022-12-11T07:17:15.259Z,99587.63
2022-12-11T07:19:41.834Z,99597.88
2022-12-11T07:22:08.356Z,99590.09
2022-12-11T07:24:34.837Z,99594.38
2022-12-11T07:27:01.371Z,99585.03
2022-12-11T07:29:27.977Z,99592.06
2022-12-11T07:31:54.613Z,99586.00
2022-12-11T07:34:21.220Z,99591.31
2022-12-11T07:36:47.808Z,99598.34
2022-12-11T07:39:14.367Z,99597.56
2022-12-11T07:41:40.955Z,99602.44
2022-12-11T07:44:07.524Z,99606.94
2022-12-11T07:46:34.307Z,99604.63
2022-12-11T07:49:01.366Z,99604.75
2022-12-11T07:51:33.391Z,99602.78
2022-12-11T07:54:02.693Z,99606.38
2022-12-11T07:56:30.367Z,99615.66
2022-12-11T07:58:59.964Z,99606.22
2022-12-11T08:01:28.408Z,99609.50
2022-12-11T08:03:56.152Z,99614.78
2022-12-11T08:06:28.784Z,99609.59
2022-12-11T08:08:56.746Z,99613.94
2022-12-11T08:11:23.369Z,99609.47
2022-12-11T08:13:49.978Z,99608.78
2022-12-11T08:16:17.843Z,99614.81
2022-12-11T08:18:46.139Z,99612.19
2022-12-11T08:21:24.206Z,99606.13
2022-12-11T08:23:52.125Z,99605.38
2022-12-11T08:26:24.773Z,99610.44
2022-12-11T08:28:51.517Z,99609.53
2022-12-11T08:31:19.514Z,99604.38
2022-12-11T08:33:46.300Z,99608.88
2022-12-11T08:36:16.824Z,99602.78
2022-12-11T08:38:43.710Z,99605.97
2022-12-11T08:41:25.143Z,99604.13
2022-12-11T08:43:55.334Z,99595.41
2022-12-11T08:46:24.428Z,99600.09
2022-12-11T08:48:51.451Z,99595.03
2022-12-11T08:51:20.781Z,99592.53
2022-12-11T08:53:47.372Z,99598.75
2022-12-11T08:56:19.211Z,99609.22
2022-12-11T08:58:46.440Z,99610.88
2022-12-11T09:01:18.381Z,99598.63
2022-12-11T09:03:45.008Z,99611.50
2022-12-11T09:06:15.094Z,99602.03
2022-12-11T09:08:45.998Z,99600.13
2022-12-11T09:11:20.191Z,99606.09
2022-12-11T09:13:47.061Z,99607.06
2022-12-11T09:16:16.370Z,99613.16
2022-12-11T09:18:45.068Z,99613.84
2022-12-11T09:21:14.603Z,99609.38
2022-12-11T09:23:42.079Z,99611.97
2022-12-11T09:26:17.613Z,99606.84
2022-12-11T09:28:47.049Z,99609.38
2022-12-11T09:31:24.228Z,99600.81
2022-12-11T09:33:52.390Z,99601.31
2022-12-11T09:36:19.045Z,99600.72
2022-12-11T09:38:46.078Z,99604.38
2022-12-11T09:41:21.805Z,99594.78
2022-12-11T09:43:48.319Z,99601.53
2022-12-11T09:46:17.104Z,99594.16
2022-12-11T09:48:48.207Z,99597.44
2022-12-11T09:51:36.570Z,99591.72
2022-12-11T09:54:06.670Z,99593.28
2022-12-11T09:56:39.528Z,99596.94
2022-12-11T09:59:13.451Z,99596.75
2022-12-11T10:02:03.258Z,99588.94
2022-12-11T10:05:04.484Z,99589.56
2022-12-11T10:07:36.507Z,99594.63
2022-12-11T10:10:17.536Z,99583.44
2022-12-11T10:12:57.524Z,99586.00
2022-12-11T10:15:32.986Z,99583.50
2022-12-11T10:18:04.863Z,99575.25
2022-12-11T10:20:39.376Z,99569.13
2022-12-11T10:23:18.150Z,99567.59
2022-12-11T10:26:02.693Z,99558.19
2022-12-11T10:28:30.006Z,99555.47
2022-12-11T10:31:02.554Z,99559.03
2022-12-11T10:33:44.096Z,99553.47
2022-12-11T10:36:13.231Z,99558.09
2022-12-11T10:38:45.568Z,99553.50
2022-12-11T10:41:14.762Z,99558.94
2022-12-11T10:43:46.158Z,99562.59
2022-12-11T10:46:17.780Z,99552.22
2022-12-11T10:48:50.754Z,99560.84
2022-12-11T10:51:17.708Z,99553.63
2022-12-11T10:53:50.516Z,99547.94
2022-12-11T10:56:26.098Z,99542.06
2022-12-11T10:58:52.832Z,99538.16
2022-12-11T11:01:26.067Z,99542.38
2022-12-11T11:03:58.776Z,99536.13
2022-12-11T11:06:27.164Z,99539.59
2022-12-11T11:08:57.601Z,99528.22
2022-12-11T11:11:34.283Z,99524.50
2022-12-11T11:14:11.992Z,99531.47
2022-12-11T11:16:41.320Z,99527.94
2022-12-11T11:19:17.501Z,99522.88
2022-12-11T11:21:53.924Z,99519.59
2022-12-11T11:24:43.419Z,99514.97
2022-12-11T11:27:14.375Z,99508.47
2022-12-11T11:29:42.184Z,99509.91
2022-12-11T11:32:23.024Z,99523.31
2022-12-11T11:34:49.625Z,99522.88
2022-12-11T11:37:31.612Z,99515.06
2022-12-11T11:40:05.919Z,99517.97
2022-12-11T11:42:45.763Z,99516.84
2022-12-11T11:45:24.967Z,99508.34
2022-12-11T11:48:18.253Z,99500.59
2022-12-11T11:50:50.480Z,99501.22
2022-12-11T11:53:27.065Z,99505.34
2022-12-11T11:56:23.529Z,99491.00
2022-12-11T11:59:08.555Z,99487.38
2022-12-11T12:01:35.239Z,99483.44
2022-12-11T12:04:03.935Z,99486.56
2022-12-11T12:06:50.545Z,99483.50
2022-12-11T12:09:39.414Z,99476.41
2022-12-11T12:12:24.695Z,99478.56
2022-12-11T12:15:04.711Z,99486.94
2022-12-11T12:17:55.089Z,99481.34
2022-12-11T12:20:37.330Z,99474.84
2022-12-11T12:23:20.594Z,99474.66
2022-12-11T12:26:01.566Z,99482.09
2022-12-11T12:28:41.842Z,99473.16
2022-12-11T12:31:32.459Z,99476.69
2022-12-11T12:34:37.999Z,99475.66
2022-12-11T12:37:13.488Z,99475.34
2022-12-11T12:40:13.213Z,99473.06
2022-12-11T12:42:51.834Z,99472.38
2022-12-11T12:45:36.976Z,99465.69
2022-12-11T12:48:03.706Z,99464.38
2022-12-11T12:50:38.568Z,99469.13
2022-12-11T12:53:07.493Z,99472.16
2022-12-11T12:55:35.868Z,99461.25
2022-12-11T12:58:05.594Z,99463.03
2022-12-11T13:00:43.971Z,99452.69
2022-12-11T13:03:30.420Z,99449.69
2022-12-11T13:06:08.034Z,99455.13
2022-12-11T13:08:42.300Z,99447.09
2022-12-11T13:11:12.100Z,99454.81
2022-12-11T13:13:38.562Z,99454.84
2022-12-11T13:16:08.405Z,99449.75
2022-12-11T13:18:37.455Z,99451.16
2022-12-11T13:21:29.625Z,99446.06
2022-12-11T13:24:14.280Z,99442.72
2022-12-11T13:26:41.818Z,99446.50
2022-12-11T13:29:35.674Z,99457.56
2022-12-11T13:32:23.244Z,99450.88
2022-12-11T13:34:58.584Z,99453.13
2022-12-11T13:37:34.827Z,99455.91
2022-12-11T13:40:05.675Z,99450.81
2022-12-11T13:42:33.924Z,99463.66
2022-12-11T13:45:01.660Z,99462.63
2022-12-11T13:47:31.487Z,99466.56
2022-12-11T13:50:04.889Z,99464.63
2022-12-11T13:52:32.692Z,99470.06
2022-12-11T13:54:59.740Z,99464.81
2022-12-11T13:57:28.693Z,99472.47
2022-12-11T13:59:59.574Z,99466.72
2022-12-11T14:02:35.840Z,99471.28
2022-12-11T14:05:06.907Z,99462.00
2022-12-11T14:07:37.847Z,99468.81
2022-12-11T14:10:28.479Z,99470.84
2022-12-11T14:13:27.325Z,99468.03
2022-12-11T14:15:54.728Z,99465.06
2022-12-11T14:18:24.827Z,99472.28
2022-12-11T14:21:06.252Z,99471.44
2022-12-11T14:23:37.408Z,99473.25
2022-12-11T14:26:21.519Z,99474.28
2022-12-11T14:28:48.396Z,99468.66
2022-12-11T14:31:21.787Z,99464.22
2022-12-11T14:33:54.681Z,99461.81
2022-12-11T14:36:22.756Z,99467.28
2022-12-11T14:39:00.921Z,99476.78
2022-12-11T14:41:48.101Z,99472.44
2022-12-11T14:44:17.139Z,99470.53
2022-12-11T14:46:47.720Z,99481.59
2022-12-11T14:49:46.105Z,99478.16
2022-12-11T14:52:24.622Z,99488.69
2022-12-11T14:54:57.030Z,99480.81
2022-12-11T14:57:27.298Z,99482.75
2022-12-11T14:59:56.566Z,99478.69
2022-12-11T15:02:27.679Z,99488.88
2022-12-11T15:05:10.725Z,99483.81
2022-12-11T15:07:37.563Z,99487.38
2022-12-11T15:10:04.959Z,99489.22
2022-12-11T15:12:32.070Z,99493.34
2022-12-11T15:15:00.941Z,99487.41
2022-12-11T15:17:28.718Z,99486.75
2022-12-11T15:20:02.684Z,99489.84
2022-12-11T15:22:32.254Z,99488.06
2022-12-11T15:24:59.909Z,99489.16
2022-12-11T15:27:38.620Z,99492.44
2022-12-11T15:30:21.910Z,99492.44
2022-12-11T15:32:48.589Z,99494.16
2022-12-11T15:35:27.517Z,99483.72
2022-12-11T15:37:56.184Z,99482.03
2022-12-11T15:40:23.602Z,99483.91
2022-12-11T15:42:50.957Z,99486.41
2022-12-11T15:45:22.210Z,99476.91
2022-12-11T15:47:50.632Z,99482.81
2022-12-11T15:50:25.392Z,99477.53
2022-12-11T15:52:54.367Z,99483.84
2022-12-11T15:55:22.835Z,99483.09
2022-12-11T15:57:54.084Z,99487.81
2022-12-11T16:00:21.792Z,99487.47
2022-12-11T16:02:48.441Z,99489.28
2022-12-11T16:05:15.135Z,99487.38
2022-12-11T16:07:42.230Z,99491.75
2022-12-11T16:10:14.575Z,99493.63
2022-12-11T16:12:42.044Z,99497.03
2022-12-11T16:15:09.393Z,99493.91
2022-12-11T16:17:36.321Z,99497.03
2022-12-11T16:20:03.435Z,99497.03
2022-12-11T16:22:29.983Z,99495.34
2022-12-11T16:24:56.737Z,99492.75
2022-12-11T16:27:23.586Z,99497.03
2022-12-11T16:29:50.305Z,99499.81
2022-12-11T16:32:16.850Z,99493.50
2022-12-11T16:34:43.488Z,99499.91
2022-12-11T16:37:10.568Z,99496.88
2022-12-11T16:39:38.336Z,99496.88
2022-12-11T16:42:05.915Z,99496.16
2022-12-11T16:44:32.758Z,99495.34
2022-12-11T16:46:59.361Z,99495.47
2022-12-11T16:49:25.940Z,99489.47
2022-12-11T16:51:52.501Z,99493.59
2022-12-11T16:54:19.189Z,99492.03
2022-12-11T16:56:45.713Z,99490.44
2022-12-11T16:59:12.955Z,99491.78
2022-12-11T17:01:39.971Z,99493.91
2022-12-11T17:04:06.726Z,99498.88
2022-12-11T17:06:33.611Z,99502.41
2022-12-11T17:09:00.163Z,99498.75
2022-12-11T17:11:27.095Z,99501.13
2022-12-11T17:13:55.678Z,99504.81
2022-12-11T17:16:24.958Z,99502.09
2022-12-11T17:18:52.040Z,99496.53
2022-12-11T17:21:20.565Z,99498.03
2022-12-11T17:23:47.118Z,99499.59
2022-12-11T17:26:13.828Z,99501.59
2022-12-11T17:28:40.613Z,99500.56
2022-12-11T17:31:08.958Z,99499.63
2022-12-11T17:33:35.696Z,99497.81
2022-12-11T17:36:04.439Z,99496.31
2022-12-11T17:38:31.562Z,99493.09
2022-12-11T17:40:58.571Z,99499.59
2022-12-11T17:43:25.383Z,99499.72
2022-12-11T17:45:53.028Z,99498.06
2022-12-11T17:48:22.458Z,99497.34
2022-12-11T17:50:51.214Z,99500.69
2022-12-11T17:53:19.166Z,99504.84
2022-12-11T17:55:46.693Z,99504.91
2022-12-11T17:58:17.797Z,99503.25
2022-12-11T18:00:46.449Z,99502.53
2022-12-11T18:03:13.523Z,99498.81
2022-12-11T18:05:45.172Z,99498.88
2022-12-11T18:08:17.150Z,99488.31
2022-12-11T18:10:44.563Z,99496.16
2022-12-11T18:13:11.649Z,99492.53
2022-12-11T18:15:38.618Z,99495.84
2022-12-11T18:18:06.735Z,99496.88
2022-12-11T18:20:34.573Z,99492.75
2022-12-11T18:23:01.928Z,99500.09
2022-12-11T18:25:28.623Z,99505.38
2022-12-11T18:27:55.791Z,99503.25
2022-12-11T18:30:23.844Z,99509.75
2022-12-11T18:32:50.862Z,99506.22
2022-12-11T18:35:18.259Z,99509.75
2022-12-11T18:37:44.884Z,99505.56
2022-12-11T18:40:14.501Z,99501.31
2022-12-11T18:42:41.130Z,99508.78
2022-12-11T18:45:08.292Z,99503.69
2022-12-11T18:47:34.802Z,99500.41
2022-12-11T18:50:07.415Z,99498.81
2022-12-11T18:52:34.974Z,99498.69
2022-12-11T18:55:01.965Z,99496.81
2022-12-11T18:57:28.507Z,99497.75
2022-12-11T18:59:55.146Z,99491.75
2022-12-11T19:02:22.489Z,99493.63
2022-12-11T19:04:49.257Z,99491.16
2022-12-11T19:07:15.822Z,99488.47
2022-12-11T19:09:47.588Z,99490.03
2022-12-11T19:12:14.849Z,99490.25
2022-12-11T19:14:41.492Z,99480.41
2022-12-11T19:17:08.111Z,99484.25
2022-12-11T19:19:35.818Z,99479.69
2022-12-11T19:22:02.731Z,99481.69
2022-12-11T19:24:29.324Z,99481.47
2022-12-11T19:26:55.874Z,99490.81
2022-12-11T19:29:28.275Z,99489.88
2022-12-11T19:31:55.811Z,99488.53
2022-12-11T19:34:22.829Z,99486.69
2022-12-11T19:36:49.949Z,99488.09
2022-12-11T19:39:17.144Z,99488.41
2022-12-11T19:41:43.947Z,99488.31
2022-12-11T19:44:10.595Z,99491.84
2022-12-11T19:46:37.493Z,99484.16
2022-12-11T19:49:04.366Z,99495.47
2022-12-11T19:51:38.566Z,99497.63
2022-12-11T19:54:10.104Z,99500.34
2022-12-11T19:56:36.775Z,99485.13
2022-12-11T19:59:05.595Z,99489.47
2022-12-11T20:01:34.195Z,99487.91
2022-12-11T20:04:03.994Z,99495.81
2022-12-11T20:06:32.733Z,99488.00
2022-12-11T20:08:59.789Z,99484.34
2022-12-11T20:11:26.524Z,99490.53
2022-12-11T20:13:55.551Z,99486.97
2022-12-11T20:16:39.517Z,99485.00
2022-12-11T20:19:08.793Z,99483.50
2022-12-11T20:21:35.342Z,99494.50
2022-12-11T20:24:02.048Z,99485.25
2022-12-11T20:26:30.982Z,99486.78
2022-12-11T20:28:57.767Z,99486.75
2022-12-11T20:31:25.825Z,99489.59
2022-12-11T20:33:53.799Z,99484.28
2022-12-11T20:36:21.537Z,99485.09
2022-12-11T20:38:48.413Z,99486.91
2022-12-11T20:41:18.902Z,99496.81
2022-12-11T20:43:45.828Z,99493.72
2022-12-11T20:46:14.948Z,99487.75
2022-12-11T20:48:42.784Z,99495.81
2022-12-11T20:51:11.979Z,99489.75
2022-12-11T20:53:39.037Z,99487.03
2022-12-11T20:56:16.113Z,99491.47
2022-12-11T20:58:43.713Z,99495.78
2022-12-11T21:01:18.549Z,99498.41
2022-12-11T21:03:45.217Z,99483.63
2022-12-11T21:06:25.862Z,99489.78
2022-12-11T21:08:53.338Z,99487.00
2022-12-11T21:11:20.989Z,99482.97
2022-12-11T21:13:47.522Z,99481.94
2022-12-11T21:16:14.298Z,99477.56
2022-12-11T21:18:41.649Z,99475.91
2022-12-11T21:21:08.191Z,99474.50
2022-12-11T21:23:35.202Z,99466.50
2022-12-11T21:26:01.920Z,99474.19
2022-12-11T21:28:34.956Z,99485.94
2022-12-11T21:31:07.281Z,99481.94
2022-12-11T21:33:35.018Z,99482.06
2022-12-11T21:36:01.874Z,99472.72
2022-12-11T21:38:29.414Z,99472.53
2022-12-11T21:40:56.614Z,99476.00
2022-12-11T21:43:23.868Z,99471.44
2022-12-11T21:46:06.101Z,99471.44
2022-12-11T21:48:32.930Z,99469.94
2022-12-11T21:51:08.510Z,99462.06
2022-12-11T21:53:35.405Z,99458.66
2022-12-11T21:56:05.978Z,99461.47
2022-12-11T21:58:32.783Z,99459.81
2022-12-11T22:00:59.343Z,99458.03
2022-12-11T22:03:25.859Z,99457.94
2022-12-11T22:05:52.499Z,99456.06
2022-12-11T22:08:19.150Z,99465.47
2022-12-11T22:10:45.835Z,99461.22
2022-12-11T22:13:12.383Z,99456.22
2022-12-11T22:15:39.001Z,99456.91
2022-12-11T22:18:05.585Z,99468.09
2022-12-11T22:20:32.253Z,99468.25
2022-12-11T22:22:58.870Z,99464.66
2022-12-11T22:25:25.498Z,99465.56
2022-12-11T22:27:51.985Z,99455.00
2022-12-11T22:30:18.614Z,99456.97
2022-12-11T22:32:45.321Z,99452.56
2022-12-11T22:35:12.349Z,99451.19
2022-12-11T22:37:39.153Z,99460.38
2022-12-11T22:40:06.452Z,99451.84
2022-12-11T22:42:33.470Z,99463.81
2022-12-11T22:45:00.005Z,99453.28
2022-12-11T22:47:26.710Z,99455.97
2022-12-11T22:49:53.303Z,99455.09
2022-12-11T22:52:19.995Z,99455.97
2022-12-11T22:54:46.609Z,99455.97
2022-12-11T22:57:14.270Z,99454.38
2022-12-11T22:59:41.087Z,99460.63
2022-12-11T23:02:07.793Z,99469.78
2022-12-11T23:04:34.353Z,99470.00
2022-12-11T23:07:00.895Z,99461.22
2022-12-11T23:09:28.664Z,99462.19
2022-12-11T23:11:55.833Z,99463.03
2022-12-11T23:14:22.344Z,99467.31
2022-12-11T23:16:48.931Z,99461.22
2022-12-11T23:19:18.557Z,99462.19
2022-12-11T23:21:48.900Z,99469.59
2022-12-11T23:24:15.479Z,99470.63
2022-12-11T23:26:42.097Z,99483.44
2022-12-11T23:29:08.773Z,99477.66
2022-12-11T23:31:37.104Z,99476.78
2022-12-11T23:34:05.111Z,99478.41
2022-12-11T23:36:32.513Z,99473.25
2022-12-11T23:39:00.299Z,99472.38
2022-12-11T23:41:26.890Z,99472.41
2022-12-11T23:43:53.479Z,99475.00
2022-12-11T23:46:23.133Z,99475.69
2022-12-11T23:48:50.620Z,99479.16
2022-12-11T23:51:19.362Z,99471.34
2022-12-11T23:53:46.438Z,99470.66
2022-12-11T23:56:16.764Z,99470.63
2022-12-11T23:58:43.329Z,99476.56
